createdAt,value
2022-10-29T00:00:41.828Z,15.570679
2022-10-29T00:01:50.538Z,15.469971
2022-10-29T00:03:00.234Z,15.399475
2022-10-29T00:04:08.890Z,15.328979
2022-10-29T00:05:17.542Z,15.288696
2022-10-29T00:06:27.211Z,15.218201
2022-10-29T00:07:35.884Z,15.147705
2022-10-29T00:08:45.570Z,15.08728
2022-10-29T00:09:54.237Z,15.036926
2022-10-29T00:11:02.929Z,14.986572
2022-10-29T00:12:12.592Z,14.916077
2022-10-29T00:13:21.281Z,14.885864
2022-10-29T00:14:30.043Z,14.83551
2022-10-29T00:15:39.723Z,14.775085
2022-10-29T00:16:48.433Z,14.765015
2022-10-29T00:17:58.393Z,14.724731
2022-10-29T00:19:06.766Z,14.70459
2022-10-29T00:20:16.455Z,14.664307
2022-10-29T00:21:26.106Z,14.634094
2022-10-29T00:22:34.804Z,14.634094
2022-10-29T00:23:44.473Z,14.624023
2022-10-29T00:24:52.185Z,14.593811
2022-10-29T00:26:01.896Z,14.553528
2022-10-29T00:27:11.682Z,14.543457
2022-10-29T00:28:21.405Z,14.543457
2022-10-29T00:29:31.099Z,14.533386
2022-10-29T00:30:40.771Z,14.503174
2022-10-29T00:31:49.477Z,14.472961
2022-10-29T00:37:57.078Z,14.412537
2022-10-29T00:39:06.504Z,14.412537
2022-10-29T00:40:15.182Z,14.442749
2022-10-29T00:41:24.824Z,14.45282
2022-10-29T00:42:33.508Z,14.45282
2022-10-29T00:43:42.198Z,14.45282
2022-10-29T00:44:49.890Z,14.483032
2022-10-29T00:45:58.578Z,14.472961
2022-10-29T00:47:08.331Z,14.442749
2022-10-29T00:48:16.053Z,14.45282
2022-10-29T00:49:24.828Z,14.432678
2022-10-29T00:50:33.584Z,14.412537
2022-10-29T00:51:42.273Z,14.362183
2022-10-29T00:52:49.932Z,14.352112
2022-10-29T00:54:00.024Z,14.301758
2022-10-29T00:55:08.716Z,14.261475
2022-10-29T00:56:17.464Z,14.20105
2022-10-29T00:57:26.137Z,14.150696
2022-10-29T00:58:34.852Z,14.110413
2022-10-29T00:59:43.893Z,14.070129
2022-10-29T01:00:52.555Z,14.039917
2022-10-29T01:02:02.466Z,13.999634
2022-10-29T01:03:10.173Z,13.959351
2022-10-29T01:04:18.762Z,13.929138
2022-10-29T01:05:28.528Z,13.94928
2022-10-29T01:06:36.212Z,13.898926
2022-10-29T01:07:44.938Z,13.888855
2022-10-29T01:08:52.690Z,13.858643
2022-10-29T01:10:02.441Z,13.858643
2022-10-29T01:11:12.148Z,13.778076
2022-10-29T01:12:19.818Z,13.768005
2022-10-29T01:13:28.494Z,13.737793
2022-10-29T01:14:38.203Z,13.737793
2022-10-29T01:15:46.876Z,13.69751
2022-10-29T01:16:55.604Z,13.667297
2022-10-29T01:18:04.319Z,13.667297
2022-10-29T01:19:15.060Z,13.667297
2022-10-29T01:20:24.754Z,13.616943
2022-10-29T01:21:33.503Z,13.566589
2022-10-29T01:22:40.401Z,13.516235
2022-10-29T01:23:50.059Z,13.435669
2022-10-29T01:24:58.719Z,13.375244
2022-10-29T01:26:07.426Z,13.304749
2022-10-29T01:27:17.079Z,13.254395
2022-10-29T01:28:24.945Z,13.234253
2022-10-29T01:29:32.729Z,13.19397
2022-10-29T01:30:42.436Z,13.123474
2022-10-29T01:31:52.126Z,13.093262
2022-10-29T01:33:00.778Z,13.052979
2022-10-29T01:34:08.563Z,13.052979
2022-10-29T01:35:16.231Z,13.052979
2022-10-29T01:36:25.902Z,13.032837
2022-10-29T01:37:35.601Z,13.002625
2022-10-29T01:38:45.299Z,13.002625
2022-10-29T01:39:53.029Z,13.002625
2022-10-29T01:41:01.738Z,12.952271
2022-10-29T01:42:11.464Z,12.932129
2022-10-29T01:43:21.119Z,12.871704
2022-10-29T01:44:29.823Z,12.901917
2022-10-29T01:45:37.568Z,12.831421
2022-10-29T01:46:46.734Z,12.851562
2022-10-29T01:47:54.910Z,12.791138
2022-10-29T01:49:02.524Z,12.791138
2022-10-29T01:50:11.232Z,12.781067
2022-10-29T01:51:20.003Z,12.82135
2022-10-29T01:52:27.776Z,12.801208
2022-10-29T01:53:37.456Z,12.801208
2022-10-29T01:54:47.214Z,12.791138
2022-10-29T01:55:55.015Z,12.791138
2022-10-29T01:57:03.850Z,12.801208
2022-10-29T01:58:13.611Z,12.781067
2022-10-29T01:59:28.631Z,12.750854
2022-10-29T02:00:31.916Z,12.720642
2022-10-29T02:01:38.612Z,12.720642
2022-10-29T02:02:48.598Z,12.720642
2022-10-29T02:03:57.002Z,12.7005
2022-10-29T02:05:05.837Z,12.680359
2022-10-29T02:06:13.569Z,12.640076
2022-10-29T02:07:23.210Z,12.640076
2022-10-29T02:08:32.993Z,12.609863
2022-10-29T02:09:41.689Z,12.609863
2022-10-29T02:10:50.407Z,12.609863
2022-10-29T02:11:59.092Z,12.640076
2022-10-29T02:13:06.804Z,12.619934
2022-10-29T02:14:16.576Z,12.619934
2022-10-29T02:15:26.265Z,12.619934
2022-10-29T02:16:33.036Z,12.640076
2022-10-29T02:17:42.755Z,12.619934
2022-10-29T02:18:51.469Z,12.609863
2022-10-29T02:20:01.181Z,12.56958
2022-10-29T02:21:08.890Z,12.56958
2022-10-29T02:22:17.616Z,12.549438
2022-10-29T02:23:25.391Z,12.539368
2022-10-29T02:24:33.100Z,12.529297
2022-10-29T02:25:41.907Z,12.499084
2022-10-29T02:26:48.539Z,12.489014
2022-10-29T02:27:58.400Z,12.489014
2022-10-29T02:29:05.984Z,12.489014
2022-10-29T02:30:15.779Z,12.499084
2022-10-29T02:31:24.526Z,12.529297
2022-10-29T02:32:34.257Z,12.489014
2022-10-29T02:33:41.948Z,12.44873
2022-10-29T02:34:49.658Z,12.44873
2022-10-29T02:35:58.344Z,12.418518
2022-10-29T02:37:06.168Z,12.418518
2022-10-29T02:38:15.856Z,12.388306
2022-10-29T02:39:24.543Z,12.358093
2022-10-29T02:40:34.256Z,12.358093
2022-10-29T02:41:43.950Z,12.358093
2022-10-29T02:42:52.991Z,12.358093
2022-10-29T02:44:02.437Z,12.368164
2022-10-29T02:45:12.134Z,12.348022
2022-10-29T02:46:19.985Z,12.388306
2022-10-29T02:47:29.922Z,12.418518
2022-10-29T02:48:39.652Z,12.428589
2022-10-29T02:49:45.317Z,12.499084
2022-10-29T02:50:54.108Z,12.609863
2022-10-29T02:52:03.784Z,12.670288
2022-10-29T02:53:11.558Z,12.7005
2022-10-29T02:54:20.331Z,12.7005
2022-10-29T02:55:28.054Z,12.730713
2022-10-29T02:56:37.712Z,12.760925
2022-10-29T02:57:46.400Z,12.791138
2022-10-29T02:58:55.083Z,12.791138
2022-10-29T03:00:02.786Z,12.791138
2022-10-29T03:01:11.533Z,12.760925
2022-10-29T03:02:21.376Z,12.730713
2022-10-29T03:03:29.992Z,12.7005
2022-10-29T03:04:39.766Z,12.7005
2022-10-29T03:05:48.950Z,12.650146
2022-10-29T03:06:57.204Z,12.640076
2022-10-29T03:08:05.961Z,12.609863
2022-10-29T03:09:15.606Z,12.599792
2022-10-29T03:10:24.293Z,12.56958
2022-10-29T03:11:34.002Z,12.56958
2022-10-29T03:12:43.708Z,12.56958
2022-10-29T03:13:51.386Z,12.579651
2022-10-29T03:15:01.270Z,12.549438
2022-10-29T03:16:09.964Z,12.539368
2022-10-29T03:17:17.674Z,12.499084
2022-10-29T03:18:26.391Z,12.458801
2022-10-29T03:19:35.120Z,12.428589
2022-10-29T03:20:44.817Z,12.418518
2022-10-29T03:21:54.524Z,12.398376
2022-10-29T03:23:03.263Z,12.398376
2022-10-29T03:24:12.968Z,12.398376
2022-10-29T03:25:21.639Z,12.388306
2022-10-29T03:26:30.348Z,12.358093
2022-10-29T03:27:40.078Z,12.31781
2022-10-29T03:28:47.877Z,12.31781
2022-10-29T03:29:56.586Z,12.358093
2022-10-29T03:31:05.312Z,12.358093
2022-10-29T03:32:14.013Z,12.368164
2022-10-29T03:33:22.774Z,12.368164
2022-10-29T03:34:32.667Z,12.368164
2022-10-29T03:35:42.377Z,12.368164
2022-10-29T03:36:50.163Z,12.398376
2022-10-29T03:37:57.964Z,12.428589
2022-10-29T03:39:05.667Z,12.44873
2022-10-29T03:40:14.680Z,12.428589
2022-10-29T03:41:23.399Z,12.418518
2022-10-29T03:42:32.111Z,12.428589
2022-10-29T03:43:40.952Z,12.428589
2022-10-29T03:44:49.584Z,12.428589
2022-10-29T03:45:58.320Z,12.44873
2022-10-29T03:47:07.033Z,12.468872
2022-10-29T03:48:15.684Z,12.468872
2022-10-29T03:49:22.412Z,12.529297
2022-10-29T03:50:31.216Z,12.599792
2022-10-29T03:51:40.000Z,12.619934
2022-10-29T03:52:48.683Z,12.650146
2022-10-29T03:53:55.407Z,12.7005
2022-10-29T03:55:04.147Z,12.760925
2022-10-29T03:56:12.818Z,12.851562
2022-10-29T03:57:22.570Z,12.911987
2022-10-29T03:58:31.292Z,13.012695
2022-10-29T03:59:38.978Z,13.083191
2022-10-29T04:00:47.695Z,13.093262
2022-10-29T04:01:57.570Z,13.153687
2022-10-29T04:03:05.278Z,13.163757
2022-10-29T04:04:12.899Z,13.204041
2022-10-29T04:05:21.666Z,13.224182
2022-10-29T04:06:30.432Z,13.234253
2022-10-29T04:07:38.119Z,13.274536
2022-10-29T04:08:46.892Z,13.304749
2022-10-29T04:09:56.610Z,13.304749
2022-10-29T04:11:05.268Z,13.345032
2022-10-29T04:12:12.963Z,13.375244
2022-10-29T04:13:20.783Z,13.365173
2022-10-29T04:14:29.531Z,13.345032
2022-10-29T04:15:39.152Z,13.375244
2022-10-29T04:16:46.922Z,13.385315
2022-10-29T04:17:56.957Z,13.385315
2022-10-29T04:19:06.297Z,13.405457
2022-10-29T04:20:20.993Z,13.435669
2022-10-29T04:23:08.308Z,13.435669
2022-10-29T04:28:43.874Z,13.556519
2022-10-29T04:29:38.562Z,13.586731
2022-10-29T04:30:47.340Z,13.566589
2022-10-29T04:31:56.039Z,13.586731
2022-10-29T04:33:05.883Z,13.586731
2022-10-29T04:34:15.576Z,13.616943
2022-10-29T04:35:25.276Z,13.616943
2022-10-29T04:36:33.989Z,13.616943
2022-10-29T04:37:42.704Z,13.596802
2022-10-29T04:38:52.406Z,13.566589
2022-10-29T04:40:01.109Z,13.556519
2022-10-29T04:41:10.788Z,13.556519
2022-10-29T04:42:19.497Z,13.526306
2022-10-29T04:43:28.247Z,13.526306
2022-10-29T04:44:36.977Z,13.516235
2022-10-29T04:45:45.669Z,13.516235
2022-10-29T04:46:55.419Z,13.496094
2022-10-29T04:48:05.164Z,13.496094
2022-10-29T04:49:14.005Z,13.496094
2022-10-29T04:50:21.595Z,13.536377
2022-10-29T04:51:30.397Z,13.566589
2022-10-29T04:52:39.159Z,13.566589
2022-10-29T04:53:48.025Z,13.566589
2022-10-29T04:54:57.769Z,13.586731
2022-10-29T04:56:06.506Z,13.647156
2022-10-29T04:57:15.195Z,13.717651
2022-10-29T04:58:23.854Z,13.778076
2022-10-29T04:59:31.520Z,13.808289
2022-10-29T05:00:39.268Z,13.82843
2022-10-29T05:01:48.931Z,13.868713
2022-10-29T05:02:57.821Z,13.888855
2022-10-29T05:04:04.270Z,13.94928
2022-10-29T05:05:12.958Z,13.999634
2022-10-29T05:06:21.723Z,14.049988
2022-10-29T05:07:30.471Z,14.0802
2022-10-29T05:08:38.184Z,14.100342
2022-10-29T05:09:46.867Z,14.0802
2022-10-29T05:10:56.529Z,14.120483
2022-10-29T05:12:05.221Z,14.170837
2022-10-29T05:13:13.912Z,14.221191
2022-10-29T05:14:22.649Z,14.261475
2022-10-29T05:15:31.415Z,14.291687
2022-10-29T05:16:39.122Z,14.281616
2022-10-29T05:17:47.922Z,14.281616
2022-10-29T05:18:55.629Z,14.291687
2022-10-29T05:20:04.449Z,14.291687
2022-10-29T05:21:14.155Z,14.291687
2022-10-29T05:22:21.846Z,14.301758
2022-10-29T05:23:31.581Z,14.301758
2022-10-29T05:24:39.276Z,14.321899
2022-10-29T05:25:48.074Z,14.33197
2022-10-29T05:26:56.772Z,14.362183
2022-10-29T05:28:05.454Z,14.372253
2022-10-29T05:29:12.188Z,14.412537
2022-10-29T05:30:20.876Z,14.442749
2022-10-29T05:31:28.607Z,14.442749
2022-10-29T05:33:46.002Z,14.503174
2022-10-29T05:34:56.706Z,14.483032
2022-10-29T05:36:06.372Z,14.45282
2022-10-29T05:37:15.041Z,14.432678
2022-10-29T05:38:22.701Z,14.402466
2022-10-29T05:39:30.403Z,14.352112
2022-10-29T05:40:38.137Z,14.33197
2022-10-29T05:41:48.005Z,14.321899
2022-10-29T05:42:57.012Z,14.321899
2022-10-29T05:44:04.344Z,14.321899
2022-10-29T05:45:14.025Z,14.321899
2022-10-29T05:46:21.783Z,14.301758
2022-10-29T05:47:29.449Z,14.321899
2022-10-29T05:48:39.127Z,14.352112
2022-10-29T05:49:47.834Z,14.402466
2022-10-29T05:50:56.533Z,14.432678
2022-10-29T05:52:13.270Z,14.432678
2022-10-29T05:53:22.969Z,14.432678
2022-10-29T05:54:32.654Z,14.432678
2022-10-29T05:55:41.351Z,14.432678
2022-10-29T05:56:51.123Z,14.45282
2022-10-29T05:58:00.812Z,14.472961
2022-10-29T05:59:10.485Z,14.513245
2022-10-29T06:00:20.201Z,14.503174
2022-10-29T06:01:28.904Z,14.513245
2022-10-29T06:02:37.637Z,14.533386
2022-10-29T06:03:47.393Z,14.513245
2022-10-29T06:04:56.014Z,14.533386
2022-10-29T06:06:05.754Z,14.513245
2022-10-29T06:07:14.342Z,14.533386
2022-10-29T06:08:22.115Z,14.533386
2022-10-29T06:09:31.746Z,14.543457
2022-10-29T06:10:39.443Z,14.58374
2022-10-29T06:11:48.121Z,14.553528
2022-10-29T06:12:56.823Z,14.58374
2022-10-29T06:14:06.465Z,14.58374
2022-10-29T06:15:16.201Z,14.603882
2022-10-29T06:16:24.869Z,14.624023
2022-10-29T06:17:34.581Z,14.634094
2022-10-29T06:18:43.250Z,14.624023
2022-10-29T06:19:51.969Z,14.593811
2022-10-29T06:21:02.534Z,14.58374
2022-10-29T06:22:15.156Z,14.553528
2022-10-29T06:23:24.825Z,14.543457
2022-10-29T06:24:33.515Z,14.553528
2022-10-29T06:25:42.190Z,14.543457
2022-10-29T06:26:51.875Z,14.593811
2022-10-29T06:28:00.593Z,14.634094
2022-10-29T06:29:09.236Z,14.664307
2022-10-29T06:30:19.012Z,14.694519
2022-10-29T06:31:26.873Z,14.70459
2022-10-29T06:32:36.553Z,14.734802
2022-10-29T06:33:46.310Z,14.775085
2022-10-29T06:34:54.037Z,14.775085
2022-10-29T06:36:03.860Z,14.83551
2022-10-29T06:37:13.633Z,14.845581
2022-10-29T06:38:21.458Z,14.885864
2022-10-29T06:39:31.182Z,14.906006
2022-10-29T06:40:39.899Z,14.906006
2022-10-29T06:41:48.586Z,14.916077
2022-10-29T06:42:58.272Z,14.906006
2022-10-29T06:44:08.032Z,14.885864
2022-10-29T06:45:17.725Z,14.906006
2022-10-29T06:46:27.469Z,14.885864
2022-10-29T06:47:36.132Z,14.855652
2022-10-29T06:48:45.865Z,14.855652
2022-10-29T06:49:53.679Z,14.845581
2022-10-29T06:51:03.349Z,14.83551
2022-10-29T06:52:13.026Z,14.815369
2022-10-29T06:53:21.766Z,14.815369
2022-10-29T06:54:31.457Z,14.83551
2022-10-29T06:55:40.187Z,14.815369
2022-10-29T06:56:49.886Z,14.83551
2022-10-29T06:57:59.600Z,14.855652
2022-10-29T06:59:08.289Z,14.875793
2022-10-29T07:00:17.966Z,14.885864
2022-10-29T07:01:30.602Z,14.906006
2022-10-29T07:02:36.430Z,14.916077
2022-10-29T07:03:46.147Z,14.916077
2022-10-29T07:04:54.835Z,14.936218
2022-10-29T07:06:03.542Z,14.966431
2022-10-29T07:07:13.239Z,14.986572
2022-10-29T07:08:21.912Z,14.996643
2022-10-29T07:09:31.576Z,15.026855
2022-10-29T07:10:41.274Z,15.08728
2022-10-29T07:11:48.926Z,15.137634
2022-10-29T07:12:58.619Z,15.238342
2022-10-29T07:14:08.292Z,15.328979
2022-10-29T07:15:16.011Z,15.429688
2022-10-29T07:16:26.681Z,15.550537
2022-10-29T07:17:36.343Z,15.641174
2022-10-29T07:18:45.042Z,15.751953
2022-10-29T07:19:54.749Z,15.83252
2022-10-29T07:21:03.435Z,15.903015
2022-10-29T07:22:13.168Z,15.983582
2022-10-29T07:23:22.919Z,16.09436
2022-10-29T07:24:31.613Z,16.195068
2022-10-29T07:25:41.337Z,16.325989
2022-10-29T07:26:50.095Z,16.507263
2022-10-29T07:27:58.976Z,16.71875
2022-10-29T07:29:09.440Z,16.910095
2022-10-29T07:30:17.138Z,17.09137
2022-10-29T07:31:26.814Z,17.312927
2022-10-29T07:32:35.510Z,17.524414
2022-10-29T07:33:44.161Z,17.756042
2022-10-29T07:34:53.894Z,17.937317
2022-10-29T07:36:02.723Z,18.078308
2022-10-29T07:37:12.399Z,18.22937
2022-10-29T07:38:22.175Z,18.35022
2022-10-29T07:40:39.783Z,18.712769
2022-10-29T07:41:48.670Z,18.934326
2022-10-29T07:42:59.614Z,19.155884
2022-10-29T07:44:09.270Z,19.3573
2022-10-29T07:45:17.978Z,19.447937
2022-10-29T07:46:26.682Z,19.588928
2022-10-29T07:47:35.402Z,19.709778
2022-10-29T07:48:44.151Z,19.760132
2022-10-29T07:49:53.801Z,19.86084
2022-10-29T07:51:01.489Z,19.99176
2022-10-29T07:52:10.166Z,20.132751
2022-10-29T07:53:19.971Z,20.213318
2022-10-29T07:54:27.634Z,20.223389
2022-10-29T07:55:37.306Z,20.223389
2022-10-29T07:56:47.811Z,20.253601
2022-10-29T07:57:56.007Z,20.24353
2022-10-29T07:59:05.502Z,20.253601
2022-10-29T08:00:15.166Z,20.132751
2022-10-29T08:01:23.952Z,20.042114
2022-10-29T08:02:33.526Z,19.911194
2022-10-29T08:03:41.197Z,19.820557
2022-10-29T08:04:50.922Z,19.770203
2022-10-29T08:06:00.600Z,19.669495
2022-10-29T08:07:09.338Z,19.619141
2022-10-29T08:08:19.015Z,19.548645
2022-10-29T08:09:27.720Z,19.508362
2022-10-29T08:10:37.481Z,19.48822
2022-10-29T08:12:55.272Z,19.447937
2022-10-29T08:14:04.580Z,19.397583
2022-10-29T08:15:12.250Z,19.387512
2022-10-29T08:16:20.963Z,19.3573
2022-10-29T08:17:30.642Z,19.367371
2022-10-29T08:18:40.362Z,19.397583
2022-10-29T08:19:50.075Z,19.407654
2022-10-29T08:20:58.793Z,19.397583
2022-10-29T08:22:06.486Z,19.387512
2022-10-29T08:23:16.216Z,19.367371
2022-10-29T08:24:25.886Z,19.367371
2022-10-29T08:25:34.552Z,19.397583
2022-10-29T08:26:44.238Z,19.387512
2022-10-29T08:27:51.932Z,19.397583
2022-10-29T08:29:01.622Z,19.437866
2022-10-29T08:30:10.286Z,19.447937
2022-10-29T08:31:17.958Z,19.478149
2022-10-29T08:32:27.677Z,19.48822
2022-10-29T08:33:36.363Z,19.518433
2022-10-29T08:34:46.026Z,19.538574
2022-10-29T08:35:55.873Z,19.548645
2022-10-29T08:37:04.684Z,19.548645
2022-10-29T08:38:14.461Z,19.578857
2022-10-29T08:39:22.278Z,19.588928
2022-10-29T08:40:31.166Z,19.619141
2022-10-29T08:41:40.931Z,19.619141
2022-10-29T08:42:48.596Z,19.588928
2022-10-29T08:43:57.329Z,19.629211
2022-10-29T08:45:07.084Z,19.619141
2022-10-29T08:46:15.778Z,19.619141
2022-10-29T08:47:25.475Z,19.588928
2022-10-29T08:48:34.182Z,19.588928
2022-10-29T08:49:41.869Z,19.548645
2022-10-29T08:50:51.588Z,19.538574
2022-10-29T08:52:00.277Z,19.538574
2022-10-29T08:53:22.649Z,19.578857
2022-10-29T08:54:36.053Z,19.619141
2022-10-29T08:55:31.336Z,19.639282
2022-10-29T08:56:40.085Z,19.689636
2022-10-29T08:57:48.803Z,19.709778
2022-10-29T08:58:56.484Z,19.73999
2022-10-29T09:01:15.963Z,19.840698
2022-10-29T09:02:24.666Z,19.880981
2022-10-29T09:03:34.286Z,19.921265
2022-10-29T09:04:43.972Z,19.941406
2022-10-29T09:05:53.664Z,19.951477
2022-10-29T09:07:02.355Z,19.941406
2022-10-29T09:08:12.043Z,19.941406
2022-10-29T09:09:21.771Z,19.951477
2022-10-29T09:10:31.442Z,19.921265
2022-10-29T09:11:40.156Z,19.951477
2022-10-29T09:12:49.823Z,19.99176
2022-10-29T09:13:58.535Z,20.021973
2022-10-29T09:15:08.220Z,20.021973
2022-10-29T09:16:16.897Z,20.021973
2022-10-29T09:17:26.571Z,20.032043
2022-10-29T09:18:36.289Z,20.032043
2022-10-29T09:19:45.019Z,20.042114
2022-10-29T09:20:53.688Z,20.102539
2022-10-29T09:22:03.409Z,20.183105
2022-10-29T09:23:11.087Z,20.223389
2022-10-29T09:24:20.849Z,20.283813
2022-10-29T09:25:30.627Z,20.344238
2022-10-29T09:26:38.294Z,20.434875
2022-10-29T09:27:47.999Z,20.505371
2022-10-29T09:28:55.687Z,20.61615
2022-10-29T09:30:04.406Z,20.716858
2022-10-29T09:31:14.136Z,20.918274
2022-10-29T09:32:22.846Z,21.069336
2022-10-29T09:33:32.546Z,21.24054
2022-10-29T09:34:42.251Z,21.482239
2022-10-29T09:35:49.945Z,21.75415
2022-10-29T09:36:59.847Z,21.99585
2022-10-29T09:38:08.539Z,22.227478
2022-10-29T09:39:21.842Z,22.529602
2022-10-29T09:40:28.951Z,22.841797
2022-10-29T09:41:37.680Z,23.214417
2022-10-29T09:42:47.395Z,23.476257
2022-10-29T09:43:57.189Z,23.768311
2022-10-29T09:45:05.891Z,24.100647
2022-10-29T09:46:15.573Z,24.3927
2022-10-29T09:47:23.333Z,24.735107
2022-10-29T09:48:32.128Z,24.926453
2022-10-29T09:49:41.858Z,25.228577
2022-10-29T09:50:51.618Z,25.319214
2022-10-29T09:52:01.329Z,25.530701
2022-10-29T09:53:11.053Z,25.752258
2022-10-29T09:54:19.770Z,25.953674
2022-10-29T09:55:29.460Z,25.933533
2022-10-29T09:56:37.147Z,26.02417
2022-10-29T09:57:46.898Z,25.993958
2022-10-29T09:58:56.477Z,25.933533
2022-10-29T10:00:04.168Z,26.004028
2022-10-29T10:01:12.901Z,26.175232
2022-10-29T10:02:22.638Z,26.427002
2022-10-29T10:03:30.244Z,26.588135
2022-10-29T10:04:39.969Z,26.729126
2022-10-29T10:05:47.702Z,26.52771
2022-10-29T10:06:57.413Z,26.326294
2022-10-29T10:08:05.093Z,26.39679
2022-10-29T10:09:14.768Z,26.618347
2022-10-29T10:10:24.448Z,26.618347
2022-10-29T10:11:32.144Z,26.588135
2022-10-29T10:12:41.805Z,26.77948
2022-10-29T10:13:50.507Z,26.880188
2022-10-29T10:14:58.164Z,26.77948
2022-10-29T10:16:06.988Z,26.77948
2022-10-29T10:17:15.693Z,26.920471
2022-10-29T10:18:24.408Z,26.990967
2022-10-29T10:19:34.206Z,26.950684
2022-10-29T10:20:41.869Z,26.799622
2022-10-29T10:21:51.550Z,26.880188
2022-10-29T10:23:00.430Z,27.101746
2022-10-29T10:24:07.959Z,27.081604
2022-10-29T10:25:17.669Z,27.272949
2022-10-29T10:26:26.332Z,27.333374
2022-10-29T10:27:36.029Z,27.272949
2022-10-29T10:28:45.749Z,27.142029
2022-10-29T10:29:54.452Z,27.222595
2022-10-29T10:31:04.204Z,27.333374
2022-10-29T10:32:12.908Z,27.444153
2022-10-29T10:33:20.680Z,27.484436
2022-10-29T10:34:30.372Z,27.484436
2022-10-29T10:35:40.065Z,27.554932
2022-10-29T10:36:48.825Z,27.444153
2022-10-29T10:37:58.990Z,27.484436
2022-10-29T10:39:07.178Z,27.474365
2022-10-29T10:40:25.614Z,27.514648
2022-10-29T10:41:35.291Z,27.484436
2022-10-29T10:42:43.960Z,27.182312
2022-10-29T10:43:53.615Z,26.77948
2022-10-29T10:45:03.320Z,26.64856
2022-10-29T10:46:13.139Z,26.557922
2022-10-29T10:47:22.871Z,26.729126
2022-10-29T10:48:33.915Z,26.90033
2022-10-29T10:49:40.244Z,27.252808
2022-10-29T10:50:49.938Z,27.554932
2022-10-29T10:51:58.691Z,27.726135
2022-10-29T10:53:08.426Z,27.625427
2022-10-29T10:54:18.264Z,27.454224
2022-10-29T10:55:26.611Z,27.212524
2022-10-29T10:56:36.275Z,26.920471
2022-10-29T10:57:44.963Z,26.799622
2022-10-29T10:58:53.648Z,26.960754
2022-10-29T11:00:03.324Z,27.303162
2022-10-29T11:01:11.093Z,27.262878
2022-10-29T11:02:19.732Z,27.293091
2022-10-29T11:03:29.429Z,27.293091
2022-10-29T11:04:38.106Z,27.393799
2022-10-29T11:05:46.779Z,27.595215
2022-10-29T11:06:55.454Z,27.554932
2022-10-29T11:08:05.158Z,27.726135
2022-10-29T11:09:14.889Z,27.776489
2022-10-29T11:10:23.561Z,27.897339
2022-10-29T11:11:33.400Z,28.098755
2022-10-29T11:12:43.086Z,28.03833
2022-10-29T11:13:51.818Z,27.957764
2022-10-29T11:15:01.546Z,28.018188
2022-10-29T11:16:11.245Z,27.927551
2022-10-29T11:17:18.944Z,28.03833
2022-10-29T11:18:29.386Z,28.199463
2022-10-29T11:19:37.292Z,28.370667
2022-10-29T11:20:47.030Z,28.54187
2022-10-29T11:21:56.699Z,28.743286
2022-10-29T11:23:04.381Z,28.743286
2022-10-29T11:24:14.205Z,28.632507
2022-10-29T11:25:22.898Z,28.54187
2022-10-29T11:26:31.649Z,28.491516
2022-10-29T11:27:41.411Z,28.572083
2022-10-29T11:28:50.111Z,28.763428
2022-10-29T11:29:58.798Z,28.964844
2022-10-29T11:31:07.538Z,29.16626
2022-10-29T11:32:17.331Z,29.337463
2022-10-29T11:33:27.138Z,29.488525
2022-10-29T11:34:36.815Z,29.629517
2022-10-29T11:35:45.493Z,29.589233
2022-10-29T11:36:56.196Z,29.679871
2022-10-29T11:38:04.921Z,29.790649
2022-10-29T11:39:13.623Z,29.820862
2022-10-29T11:40:23.305Z,29.901428
2022-10-29T11:41:32.125Z,29.760437
2022-10-29T11:42:41.858Z,29.871216
2022-10-29T11:43:50.569Z,29.720154
2022-10-29T11:44:58.303Z,29.659729
2022-10-29T11:46:08.062Z,29.841003
2022-10-29T11:47:16.744Z,30.032349
2022-10-29T11:48:26.438Z,29.820862
2022-10-29T11:49:36.347Z,29.780579
2022-10-29T11:50:46.016Z,29.841003
2022-10-29T11:51:55.678Z,29.941711
2022-10-29T11:53:04.423Z,29.971924
2022-10-29T11:54:12.116Z,30.183411
2022-10-29T11:55:22.889Z,29.931641
2022-10-29T11:56:32.570Z,29.377747
2022-10-29T11:57:42.280Z,29.317322
2022-10-29T11:58:51.982Z,29.599304
2022-10-29T12:00:00.679Z,29.881287
2022-10-29T12:01:10.456Z,29.971924
2022-10-29T12:02:18.097Z,29.901428
2022-10-29T12:03:25.789Z,30.122986
2022-10-29T12:04:35.478Z,30.354614
2022-10-29T12:05:43.180Z,30.777588
2022-10-29T12:06:52.900Z,31.119995
2022-10-29T12:08:02.579Z,31.361694
2022-10-29T12:09:11.273Z,31.613464
2022-10-29T12:10:19.946Z,31.784668
2022-10-29T12:11:28.656Z,31.250916
2022-10-29T12:12:38.366Z,30.908508
2022-10-29T12:13:47.071Z,30.767517
2022-10-29T12:14:55.769Z,30.686951
2022-10-29T12:16:06.459Z,30.838013
2022-10-29T12:17:16.146Z,30.8078
2022-10-29T12:18:24.913Z,30.686951
2022-10-29T12:19:34.549Z,30.183411
2022-10-29T12:20:43.231Z,29.730225
2022-10-29T12:21:51.953Z,29.689941
2022-10-29T12:23:03.616Z,29.861145
2022-10-29T12:24:12.275Z,30.163269
2022-10-29T12:25:21.987Z,30.586243
2022-10-29T12:26:29.674Z,30.727234
2022-10-29T12:27:39.347Z,30.67688
2022-10-29T12:28:49.019Z,30.525818
2022-10-29T12:29:57.893Z,30.324402
2022-10-29T12:31:07.553Z,30.505676
2022-10-29T12:32:16.256Z,30.435181
2022-10-29T12:33:23.930Z,30.495605
2022-10-29T12:34:33.598Z,30.8078
2022-10-29T12:35:42.324Z,31.099854
2022-10-29T12:36:53.397Z,31.442261
2022-10-29T12:38:01.709Z,31.704102
2022-10-29T12:39:11.529Z,31.55304
2022-10-29T12:40:21.251Z,31.542969
2022-10-29T12:41:31.013Z,31.492615
2022-10-29T12:42:39.671Z,31.623535
2022-10-29T12:43:49.371Z,31.784668
2022-10-29T12:44:58.093Z,31.774597
2022-10-29T12:46:19.820Z,31.93573
2022-10-29T12:47:18.467Z,31.734314
2022-10-29T12:48:35.215Z,31.170349
2022-10-29T12:49:43.884Z,30.697021
2022-10-29T12:50:53.576Z,30.767517
2022-10-29T12:52:01.269Z,30.717163
2022-10-29T12:53:10.010Z,30.626526
2022-10-29T12:54:19.671Z,30.777588
2022-10-29T12:55:27.400Z,30.999146
2022-10-29T12:56:37.107Z,31.291199
2022-10-29T12:57:47.761Z,31.099854
2022-10-29T12:58:56.458Z,30.767517
2022-10-29T13:00:06.140Z,30.908508
2022-10-29T13:01:13.893Z,31.200562
2022-10-29T13:02:22.750Z,31.291199
2022-10-29T13:03:32.316Z,31.210632
2022-10-29T13:04:42.959Z,31.250916
2022-10-29T13:05:52.638Z,31.462402
2022-10-29T13:07:01.379Z,31.341553
2022-10-29T13:08:11.086Z,31.05957
2022-10-29T13:09:20.804Z,30.968933
2022-10-29T13:10:30.495Z,31.140137
2022-10-29T13:11:40.312Z,31.220703
2022-10-29T13:12:49.983Z,31.341553
2022-10-29T13:13:58.659Z,31.331482
2022-10-29T13:15:08.426Z,31.462402
2022-10-29T13:16:17.211Z,31.462402
2022-10-29T13:17:24.972Z,31.56311
2022-10-29T13:18:37.634Z,31.200562
2022-10-29T13:19:44.401Z,30.727234
2022-10-29T13:20:53.071Z,30.545959
2022-10-29T13:22:02.825Z,30.586243
2022-10-29T13:23:10.722Z,30.545959
2022-10-29T13:24:20.189Z,30.616455
2022-10-29T13:25:28.947Z,30.697021
2022-10-29T13:26:37.653Z,30.777588